Time;durP1;ratioP1;P1;durP2;ratioP2;P2;SDS_P1;SDS_P2;PMS_P1;PMS_P2;Temp;Humidity;BMP_temperature;BMP_pressure;BME280_temperature;BME280_humidity;BME280_pressure;Samples;Min_cycle;Max_cycle;Signal;HPM_P1;HPM_P2
2022/10/01 00:01:23;;;;;;;13.45;6.43;;;14.60;99.90;;;;;;5075762;28;20115;-69
2022/10/01 00:03:50;;;;;;;16.20;5.32;;;14.60;99.90;;;;;;5075067;28;20045;-69
2022/10/01 00:06:21;;;;;;;13.82;5.28;;;14.60;99.90;;;;;;5074794;28;20532;-69
2022/10/01 00:08:50;;;;;;;11.98;4.38;;;14.60;99.90;;;;;;5075613;28;20059;-69
2022/10/01 00:11:20;;;;;;;11.45;4.53;;;14.50;99.90;;;;;;5075447;28;20094;-69
2022/10/01 00:13:48;;;;;;;10.70;4.50;;;14.60;99.90;;;;;;5075503;28;20044;-69
2022/10/01 00:16:17;;;;;;;12.70;5.00;;;14.60;99.90;;;;;;5057724;28;20139;-69
2022/10/01 00:18:46;;;;;;;10.15;5.40;;;14.60;99.90;;;;;;5076073;28;20036;-69
2022/10/01 00:21:17;;;;;;;10.77;6.00;;;14.70;99.90;;;;;;5076424;28;20044;-69
2022/10/01 00:23:46;;;;;;;9.80;4.78;;;14.70;99.90;;;;;;5075455;28;20499;-69
2022/10/01 00:26:15;;;;;;;12.18;4.82;;;14.80;99.90;;;;;;5057976;28;20147;-69
2022/10/01 00:28:45;;;;;;;11.18;5.32;;;14.80;99.90;;;;;;5075587;28;20496;-69
2022/10/01 00:31:14;;;;;;;15.85;5.90;;;14.90;99.90;;;;;;5075891;28;20040;-69
2022/10/01 00:33:42;;;;;;;13.50;5.75;;;15.00;99.90;;;;;;5075189;28;20048;-69
2022/10/01 00:36:10;;;;;;;10.27;4.97;;;15.00;99.90;;;;;;5075641;28;20074;-69
2022/10/01 00:38:39;;;;;;;15.70;5.00;;;15.00;99.90;;;;;;5073614;28;20161;-69
2022/10/01 00:41:09;;;;;;;8.18;5.05;;;15.00;99.90;;;;;;5073791;28;20536;-69
2022/10/01 00:43:42;;;;;;;9.65;5.47;;;15.00;99.90;;;;;;5056743;28;20052;-69
2022/10/01 00:46:18;;;;;;;14.18;4.10;;;15.00;99.90;;;;;;5074973;28;20102;-69
2022/10/01 00:48:52;;;;;;;15.93;4.40;;;15.10;99.90;;;;;;5074258;28;20037;-69
2022/10/01 00:51:19;;;;;;;13.38;4.28;;;15.10;99.90;;;;;;5036944;28;20569;-69
2022/10/01 00:53:47;;;;;;;11.82;4.63;;;15.10;99.90;;;;;;5054475;28;20045;-69
2022/10/01 00:56:16;;;;;;;8.68;5.00;;;15.10;99.90;;;;;;5054817;28;20045;-69
2022/10/01 00:58:43;;;;;;;13.68;4.75;;;15.10;99.90;;;;;;5054415;28;20117;-69
2022/10/01 01:01:11;;;;;;;14.25;4.97;;;15.10;99.90;;;;;;5054517;28;20041;-69
2022/10/01 01:03:38;;;;;;;9.50;4.32;;;15.10;99.90;;;;;;5056003;28;20053;-69
2022/10/01 01:06:08;;;;;;;11.40;4.82;;;15.10;99.90;;;;;;5054543;28;20049;-69
2022/10/01 01:08:35;;;;;;;9.50;4.05;;;15.10;99.90;;;;;;5053445;28;20500;-69
2022/10/01 01:11:13;;;;;;;16.10;5.00;;;15.10;99.90;;;;;;5054426;28;20055;-69
2022/10/01 01:13:49;;;;;;;8.90;4.20;;;15.10;99.90;;;;;;5067532;28;20526;-69
2022/10/01 01:16:22;;;;;;;9.15;4.20;;;15.00;99.90;;;;;;5074232;28;20044;-68
2022/10/01 01:18:58;;;;;;;10.48;4.63;;;15.00;99.90;;;;;;5074293;28;20157;-69
2022/10/01 01:21:30;;;;;;;8.10;4.20;;;14.90;99.90;;;;;;5073676;28;20090;-69
2022/10/01 01:24:20;;;;;;;14.43;5.00;;;14.90;99.90;;;;;;5073946;28;20114;-69
2022/10/01 01:27:15;;;;;;;13.18;5.53;;;14.90;99.90;;;;;;5074129;28;20075;-69
2022/10/01 01:29:51;;;;;;;10.43;4.85;;;14.90;99.90;;;;;;5074403;28;20036;-69
2022/10/01 01:32:21;;;;;;;;;;;14.90;99.90;;;;;;5074026;28;20064;-69
2022/10/01 01:34:52;;;;;;;11.38;5.13;;;14.90;99.90;;;;;;5073814;28;19924;-69
2022/10/01 01:37:25;;;;;;;13.15;5.40;;;14.90;99.90;;;;;;5073858;28;20041;-69
2022/10/01 01:39:56;;;;;;;16.40;5.72;;;14.80;99.90;;;;;;5073921;28;20041;-69
2022/10/01 01:42:30;;;;;;;16.15;6.95;;;14.80;99.90;;;;;;5073569;28;20041;-69
2022/10/01 01:45:00;;;;;;;11.25;5.18;;;14.80;99.90;;;;;;5073406;28;20116;-69
2022/10/01 01:47:32;;;;;;;11.05;4.93;;;14.80;99.90;;;;;;5073969;28;20047;-69
2022/10/01 01:50:01;;;;;;;11.10;5.40;;;14.90;99.90;;;;;;5073357;28;20552;-69
2022/10/01 01:52:30;;;;;;;9.73;5.65;;;14.90;99.90;;;;;;5073462;28;20048;-69
2022/10/01 01:54:57;;;;;;;10.60;5.65;;;14.80;99.90;;;;;;5073455;28;20074;-69
2022/10/01 01:57:25;;;;;;;11.35;5.20;;;14.90;99.90;;;;;;5073597;28;20067;-69
2022/10/01 01:59:54;;;;;;;9.38;4.40;;;14.80;99.90;;;;;;5073525;28;20075;-69
2022/10/01 02:02:28;;;;;;;13.45;5.15;;;14.80;99.90;;;;;;5073302;28;20040;-69
2022/10/01 02:04:59;;;;;;;9.85;4.50;;;14.80;99.90;;;;;;5071527;28;20052;-69
2022/10/01 02:07:51;;;;;;;8.75;3.92;;;14.80;99.90;;;;;;5073234;28;20125;-69
2022/10/01 02:10:34;;;;;;;8.45;3.40;;;15.00;99.90;;;;;;5066642;28;20496;-69
2022/10/01 02:13:13;;;;;;;8.75;3.08;;;15.40;99.90;;;;;;5073198;28;20098;-69
2022/10/01 02:15:50;;;;;;;6.45;2.83;;;15.80;99.90;;;;;;5072629;28;20132;-69
2022/10/01 02:18:28;;;;;;;8.45;2.75;;;16.60;99.90;;;;;;5055245;28;20139;-69
2022/10/01 02:21:04;;;;;;;10.48;3.33;;;16.90;99.90;;;;;;5073013;28;20060;-69
2022/10/01 02:23:36;;;;;;;7.53;3.00;;;17.00;99.90;;;;;;5072908;28;20044;-69
2022/10/01 02:26:08;;;;;;;6.88;3.00;;;17.10;99.90;;;;;;5072983;28;20127;-69
2022/10/01 02:28:39;;;;;;;6.82;2.67;;;17.30;99.90;;;;;;5073183;28;20120;-70
2022/10/01 02:31:08;;;;;;;5.70;2.95;;;17.60;99.90;;;;;;5073392;28;20060;-69
2022/10/01 02:33:37;;;;;;;7.95;2.50;;;17.90;99.90;;;;;;5072950;28;20494;-69
2022/10/01 02:36:06;;;;;;;8.65;2.60;;;18.10;99.90;;;;;;5072489;28;20072;-69
2022/10/01 02:38:37;;;;;;;9.57;2.90;;;18.00;99.90;;;;;;5073029;28;20123;-69
2022/10/01 02:41:07;;;;;;;5.05;2.40;;;18.10;99.90;;;;;;5073138;28;20041;-69
2022/10/01 02:43:37;;;;;;;5.05;2.47;;;18.10;99.90;;;;;;5072807;28;20120;-69
2022/10/01 02:46:13;;;;;;;5.95;2.30;;;18.30;99.90;;;;;;5072681;28;20044;-69
2022/10/01 02:48:42;;;;;;;7.47;2.30;;;18.70;99.90;;;;;;5073179;28;20055;-69
2022/10/01 02:51:24;;;;;;;6.13;2.83;;;19.00;99.90;;;;;;5072167;28;20099;-69
2022/10/01 02:53:57;;;;;;;5.93;2.50;;;19.10;99.90;;;;;;5072597;28;20109;-69
2022/10/01 02:59:11;;;;;;;5.75;2.15;;;19.20;99.90;;;;;;5072964;28;20363;-69
2022/10/01 03:01:39;;;;;;;8.38;2.42;;;19.30;99.90;;;;;;5072550;28;20127;-69
2022/10/01 03:04:08;;;;;;;8.38;2.63;;;19.20;99.90;;;;;;5071972;28;20403;-69
2022/10/01 03:06:35;;;;;;;5.90;3.13;;;19.10;99.90;;;;;;5054895;28;20090;-69
2022/10/01 03:09:03;;;;;;;6.10;3.05;;;18.90;99.90;;;;;;5072676;28;20052;-69
2022/10/01 03:11:30;;;;;;;8.32;3.38;;;18.60;99.90;;;;;;5072618;28;20048;-69
2022/10/01 03:13:57;;;;;;;5.72;2.75;;;18.50;99.90;;;;;;5071755;28;20045;-69
2022/10/01 03:16:24;;;;;;;9.80;2.92;;;18.70;99.90;;;;;;5072563;28;20563;-69
2022/10/01 03:18:52;;;;;;;7.25;2.35;;;18.70;99.90;;;;;;5072586;28;20045;-69
2022/10/01 03:21:20;;;;;;;5.53;2.33;;;19.10;99.90;;;;;;5072612;28;20523;-69
2022/10/01 03:23:48;;;;;;;4.65;1.88;;;19.50;99.90;;;;;;5072025;28;20064;-68
2022/10/01 03:26:15;;;;;;;6.95;2.67;;;19.50;99.90;;;;;;5072489;28;20573;-69
2022/10/01 03:28:42;;;;;;;7.63;2.53;;;19.40;99.90;;;;;;5072543;28;20043;-69
2022/10/01 03:31:11;;;;;;;8.68;2.60;;;19.30;99.90;;;;;;5072628;28;20480;-69
2022/10/01 03:33:40;;;;;;;3.80;2.08;;;19.30;99.90;;;;;;5072671;28;20116;-68
2022/10/01 03:36:07;;;;;;;4.72;2.30;;;19.20;99.90;;;;;;5072124;28;20127;-69
2022/10/01 03:38:36;;;;;;;10.88;2.90;;;19.10;99.90;;;;;;5072823;28;20047;-69
2022/10/01 03:41:03;;;;;;;10.48;3.10;;;18.90;99.90;;;;;;5072385;28;20573;-68
2022/10/01 03:43:30;;;;;;;9.73;3.33;;;18.70;99.90;;;;;;5072146;28;20076;-68
2022/10/01 03:45:57;;;;;;;6.60;2.78;;;18.60;99.90;;;;;;5074583;28;20554;-68
2022/10/01 03:48:25;;;;;;;9.55;3.20;;;18.50;99.90;;;;;;5075923;28;20124;-68
2022/10/01 03:50:56;;;;;;;7.50;3.25;;;18.40;99.90;;;;;;5075368;28;20250;-69
2022/10/01 03:53:25;;;;;;;11.75;4.00;;;18.30;99.90;;;;;;5075735;28;20119;-69
2022/10/01 03:55:54;;;;;;;11.32;5.70;;;18.10;99.90;;;;;;5075329;28;20483;-68
2022/10/01 03:58:22;;;;;;;11.45;5.40;;;17.90;99.90;;;;;;5075761;28;20117;-68
2022/10/01 04:00:50;;;;;;;9.05;4.70;;;17.60;99.90;;;;;;5075786;28;20427;-69
2022/10/01 04:03:18;;;;;;;12.02;5.28;;;17.50;99.90;;;;;;5075019;28;20060;-69
2022/10/01 04:05:46;;;;;;;10.02;5.88;;;17.30;99.90;;;;;;5058000;28;20052;-67
2022/10/01 04:08:14;;;;;;;8.00;4.70;;;17.20;99.90;;;;;;5075939;28;20044;-68
2022/10/01 04:10:42;;;;;;;13.43;4.68;;;17.10;99.90;;;;;;5075672;28;20509;-67
2022/10/01 04:13:10;;;;;;;10.77;4.72;;;17.00;99.90;;;;;;5056888;28;20028;-67
2022/10/01 04:15:38;;;;;;;8.43;4.93;;;16.90;99.90;;;;;;5075317;28;20128;-67
2022/10/01 04:18:06;;;;;;;10.90;4.25;;;16.80;99.90;;;;;;5075427;28;20579;-68
2022/10/01 04:20:33;;;;;;;8.48;4.50;;;16.70;99.90;;;;;;5075864;28;20056;-70
2022/10/01 04:23:01;;;;;;;10.65;5.15;;;16.60;99.90;;;;;;5075103;28;20045;-67
2022/10/01 04:25:29;;;;;;;11.93;5.80;;;16.50;99.90;;;;;;5074573;28;20070;-68
2022/10/01 04:27:58;;;;;;;13.68;4.57;;;16.30;99.90;;;;;;5075963;28;20427;-68
2022/10/01 04:30:29;;;;;;;15.98;5.88;;;16.20;99.90;;;;;;5075715;28;20120;-68
2022/10/01 04:32:56;;;;;;;12.73;5.65;;;16.10;99.90;;;;;;5075238;28;20056;-68
2022/10/01 04:35:24;;;;;;;12.05;6.20;;;16.10;99.90;;;;;;5075338;28;20128;-68
2022/10/01 04:37:57;;;;;;;10.45;5.68;;;16.00;99.90;;;;;;5074969;28;20072;-67
2022/10/01 04:40:25;;;;;;;11.98;6.85;;;15.90;99.90;;;;;;5075711;28;20053;-69
2022/10/01 04:42:52;;;;;;;14.18;7.00;;;15.80;99.90;;;;;;5075410;28;20098;-67
2022/10/01 04:45:20;;;;;;;17.25;7.72;;;15.70;99.90;;;;;;5075719;28;20045;-69
2022/10/01 04:47:49;;;;;;;16.60;6.90;;;15.70;99.90;;;;;;5074560;28;20498;-69
2022/10/01 04:50:18;;;;;;;11.85;5.22;;;15.60;99.90;;;;;;5074498;28;20473;-68
2022/10/01 04:52:50;;;;;;;21.33;7.07;;;15.60;99.90;;;;;;5074532;28;20032;-67
2022/10/01 04:55:18;;;;;;;13.32;6.22;;;15.60;99.90;;;;;;5074926;28;20083;-67
2022/10/01 04:57:45;;;;;;;10.30;5.82;;;15.60;99.90;;;;;;5073030;28;20119;-68
2022/10/01 05:00:15;;;;;;;9.80;6.68;;;15.60;99.90;;;;;;5074291;28;20553;-68
2022/10/01 05:02:45;;;;;;;13.80;7.65;;;15.50;99.90;;;;;;5073958;28;20045;-68
2022/10/01 05:05:14;;;;;;;26.10;13.27;;;15.50;99.90;;;;;;5055710;28;20048;-67
2022/10/01 05:07:41;;;;;;;20.70;10.23;;;15.40;99.90;;;;;;5073885;28;20050;-68
2022/10/01 05:10:12;;;;;;;25.30;11.88;;;15.30;99.90;;;;;;5074514;28;20115;-67
2022/10/01 05:12:40;;;;;;;78.80;13.82;;;15.30;99.90;;;;;;5073643;28;20071;-69
2022/10/01 05:15:08;;;;;;;29.05;9.45;;;15.30;99.90;;;;;;5074537;28;20503;-68
2022/10/01 05:17:35;;;;;;;26.05;8.20;;;15.40;99.90;;;;;;5074274;28;20115;-67
2022/10/01 05:20:05;;;;;;;12.43;6.82;;;15.40;99.90;;;;;;5074302;28;20124;-68
2022/10/01 05:22:34;;;;;;;27.52;8.35;;;15.30;99.90;;;;;;5073734;28;20495;-69
2022/10/01 05:25:01;;;;;;;17.13;7.70;;;15.30;99.90;;;;;;5073528;28;20123;-67
2022/10/01 05:27:31;;;;;;;12.57;6.35;;;15.30;99.90;;;;;;5073882;28;20052;-68
2022/10/01 05:29:58;;;;;;;13.15;7.13;;;15.30;99.90;;;;;;5073839;28;20487;-67
2022/10/01 05:32:25;;;;;;;11.23;7.30;;;15.40;99.90;;;;;;5055946;28;20230;-69
2022/10/01 05:34:52;;;;;;;21.42;9.98;;;15.50;99.90;;;;;;5073108;28;20562;-68
2022/10/01 05:37:19;;;;;;;26.13;14.82;;;15.50;99.90;;;;;;5073591;28;20119;-68
2022/10/01 05:39:48;;;;;;;23.33;15.88;;;15.50;99.90;;;;;;5073790;28;20041;-67
2022/10/01 05:42:16;;;;;;;25.70;16.85;;;15.60;99.90;;;;;;5073970;28;20461;-68
2022/10/01 05:44:45;;;;;;;26.63;15.48;;;15.60;99.90;;;;;;5073316;28;20119;-67
2022/10/01 05:47:12;;;;;;;21.63;15.07;;;15.70;99.90;;;;;;5073562;28;20499;-68
2022/10/01 05:49:41;;;;;;;18.40;12.50;;;15.70;99.90;;;;;;5073811;28;20040;-69
2022/10/01 05:52:09;;;;;;;43.63;23.10;;;15.70;99.90;;;;;;5073587;28;20040;-67
2022/10/01 05:54:37;;;;;;;37.45;19.92;;;15.70;99.90;;;;;;5055330;28;20094;-69
2022/10/01 05:57:06;;;;;;;22.05;16.30;;;15.70;99.90;;;;;;5073603;28;20110;-68
2022/10/01 05:59:34;;;;;;;25.33;13.75;;;15.60;99.90;;;;;;5073578;28;20052;-68
2022/10/01 06:02:02;;;;;;;21.52;13.35;;;15.60;99.90;;;;;;5071483;28;20037;-68
2022/10/01 06:04:30;;;;;;;24.50;13.52;;;15.70;99.90;;;;;;5073092;28;20036;-68
2022/10/01 06:06:57;;;;;;;25.15;14.48;;;15.90;99.90;;;;;;5073842;28;20123;-69
2022/10/01 06:09:26;;;;;;;21.55;12.35;;;16.00;99.90;;;;;;5072276;28;20078;-68
2022/10/01 06:11:54;;;;;;;23.10;14.40;;;16.20;99.90;;;;;;5082199;28;20048;-69
2022/10/01 06:14:22;;;;;;;27.73;14.88;;;16.30;99.90;;;;;;5061731;28;20052;-68
2022/10/01 06:16:53;;;;;;;24.85;13.65;;;16.30;99.90;;;;;;5076868;28;20048;-68
2022/10/01 06:19:21;;;;;;;28.85;15.90;;;16.30;99.90;;;;;;5083445;28;20042;-70
2022/10/01 06:21:49;;;;;;;24.42;14.85;;;16.30;99.90;;;;;;5077555;28;20491;-68
2022/10/01 06:24:16;;;;;;;35.70;17.05;;;16.40;99.90;;;;;;5082640;28;20045;-67
2022/10/01 06:26:43;;;;;;;25.83;16.70;;;16.40;99.90;;;;;;5078443;28;20075;-66
2022/10/01 06:29:11;;;;;;;23.83;11.75;;;16.40;99.90;;;;;;5077875;28;20040;-67
2022/10/01 06:31:39;;;;;;;31.00;15.70;;;16.50;99.90;;;;;;5073751;28;20044;-69
2022/10/01 06:34:07;;;;;;;23.65;12.80;;;16.50;99.90;;;;;;5069791;28;20060;-68
2022/10/01 06:36:34;;;;;;;18.10;9.98;;;16.60;99.90;;;;;;5088312;28;20040;-68
2022/10/01 06:39:01;;;;;;;16.25;8.90;;;16.70;99.90;;;;;;5072760;28;20036;-68
2022/10/01 06:41:29;;;;;;;18.30;11.18;;;16.80;99.90;;;;;;5085519;28;20451;-68
2022/10/01 06:43:56;;;;;;;20.48;11.52;;;16.80;99.90;;;;;;5077046;28;20037;-68
2022/10/01 06:46:23;;;;;;;20.35;11.88;;;16.90;99.90;;;;;;5075542;28;20064;-69
2022/10/01 06:48:52;;;;;;;21.55;12.40;;;16.90;99.90;;;;;;5074235;28;20127;-67
2022/10/01 06:52:47;;;;;;;21.30;12.20;;;17.10;99.90;;;;;;5088357;28;20118;-68
2022/10/01 06:54:06;;;;;;;26.23;15.60;;;17.30;99.90;;;;;;5087233;28;20054;-68
2022/10/01 06:56:34;;;;;;;37.97;20.17;;;17.40;99.90;;;;;;5080605;28;20566;-67
2022/10/01 06:59:02;;;;;;;33.28;19.10;;;17.50;99.90;;;;;;5072952;28;20044;-67
2022/10/01 07:01:31;;;;;;;22.10;13.73;;;17.60;99.90;;;;;;5055365;28;20082;-68
2022/10/01 07:04:00;;;;;;;30.63;17.85;;;17.70;99.90;;;;;;5071098;28;20059;-68
2022/10/01 07:06:27;;;;;;;40.42;23.98;;;17.70;99.90;;;;;;5072788;28;20051;-68
2022/10/01 07:08:55;;;;;;;32.92;19.20;;;17.80;99.90;;;;;;5072825;28;20193;-67
2022/10/01 07:11:22;;;;;;;35.83;18.45;;;17.80;99.90;;;;;;5072312;28;20083;-67
2022/10/01 07:13:51;;;;;;;30.13;15.63;;;17.90;99.90;;;;;;5072179;28;20072;-67
2022/10/01 07:16:18;;;;;;;37.60;18.05;;;18.10;99.90;;;;;;5072709;28;20044;-67
2022/10/01 07:18:45;;;;;;;28.15;17.02;;;18.20;99.90;;;;;;5071572;28;20044;-68
2022/10/01 07:21:14;;;;;;;22.80;14.23;;;18.30;99.90;;;;;;5075899;28;20041;-67
2022/10/01 07:23:42;;;;;;;27.83;12.13;;;18.40;99.90;;;;;;5072936;28;20044;-66
2022/10/01 07:26:09;;;;;;;22.40;11.20;;;18.40;99.90;;;;;;5075974;28;20044;-68
2022/10/01 07:28:36;;;;;;;25.83;11.57;;;18.40;99.90;;;;;;5075922;28;20068;-67
2022/10/01 07:31:06;;;;;;;14.27;9.07;;;18.30;99.90;;;;;;5075069;28;20041;-67
2022/10/01 07:33:34;;;;;;;18.30;9.98;;;18.40;99.90;;;;;;5070019;28;20041;-67
2022/10/01 07:36:02;;;;;;;15.32;8.90;;;18.70;99.90;;;;;;5074586;28;20064;-66
2022/10/01 07:38:32;;;;;;;22.83;9.70;;;18.80;99.90;;;;;;5055617;28;20131;-68
2022/10/01 07:41:01;;;;;;;29.20;13.63;;;19.20;99.90;;;;;;5077441;28;20139;-67
2022/10/01 07:43:29;;;;;;;24.77;13.93;;;19.50;99.90;;;;;;5081769;28;20475;-69
2022/10/01 07:45:58;;;;;;;25.85;13.13;;;19.70;99.90;;;;;;5075113;28;20052;-67
2022/10/01 07:48:26;;;;;;;22.38;11.80;;;20.20;99.90;;;;;;5074526;28;20090;-67
2022/10/01 07:50:54;;;;;;;20.48;11.05;;;20.70;99.90;;;;;;5068577;28;20080;-69
2022/10/01 07:53:23;;;;;;;16.52;9.32;;;21.30;99.90;;;;;;5073506;28;20492;-67
2022/10/01 07:55:51;;;;;;;15.90;8.60;;;21.50;99.90;;;;;;5075214;28;20102;-66
2022/10/01 07:58:22;;;;;;;11.88;6.68;;;21.50;99.90;;;;;;5089189;28;20411;-68
2022/10/01 08:00:54;;;;;;;12.93;6.82;;;21.70;99.90;;;;;;5089631;28;20041;-68
2022/10/01 08:03:21;;;;;;;12.10;6.90;;;21.80;99.90;;;;;;5075094;28;20037;-67
2022/10/01 08:05:49;;;;;;;14.88;6.30;;;21.90;99.90;;;;;;5074958;28;20052;-68
2022/10/01 08:08:16;;;;;;;9.77;5.47;;;22.20;99.90;;;;;;5075736;28;20059;-67
2022/10/01 08:10:43;;;;;;;9.15;5.10;;;22.30;99.90;;;;;;5074967;28;20083;-68
2022/10/01 08:13:14;;;;;;;10.32;5.00;;;22.40;99.90;;;;;;5074998;28;20124;-67
2022/10/01 08:15:42;;;;;;;11.88;6.72;;;22.50;99.90;;;;;;5081516;28;20043;-67
2022/10/01 08:18:10;;;;;;;14.00;5.80;;;22.60;99.90;;;;;;5081392;28;20083;-67
2022/10/01 08:20:38;;;;;;;11.55;6.20;;;22.90;99.90;;;;;;5075535;28;20041;-67
2022/10/01 08:23:08;;;;;;;11.48;6.55;;;23.00;99.90;;;;;;5074839;28;20044;-68
2022/10/01 08:25:35;;;;;;;10.88;6.32;;;22.90;99.90;;;;;;5075690;28;20045;-67
2022/10/01 08:28:03;;;;;;;15.45;5.47;;;22.70;99.90;;;;;;5075946;28;20476;-68
2022/10/01 08:30:31;;;;;;;11.63;5.93;;;22.50;99.90;;;;;;5076301;28;20075;-67
2022/10/01 08:33:00;;;;;;;9.70;5.05;;;22.30;99.90;;;;;;5075842;28;20044;-68
2022/10/01 08:35:29;;;;;;;9.82;3.90;;;22.30;99.90;;;;;;5075390;28;20033;-67
2022/10/01 08:38:00;;;;;;;7.75;3.88;;;22.30;99.90;;;;;;5074566;28;20062;-67
2022/10/01 08:40:28;;;;;;;14.50;3.67;;;22.30;99.90;;;;;;5074481;28;20036;-67
2022/10/01 08:42:59;;;;;;;9.80;4.95;;;22.50;99.90;;;;;;5074507;28;20049;-68
2022/10/01 08:45:28;;;;;;;10.63;5.10;;;22.70;99.90;;;;;;5074114;28;20024;-68
2022/10/01 08:48:03;;;;;;;8.20;4.30;;;22.80;99.90;;;;;;5073986;28;20068;-68
2022/10/01 08:50:45;;;;;;;8.50;3.67;;;22.70;99.90;;;;;;5069885;28;20131;-68
2022/10/01 08:53:18;;;;;;;6.95;3.42;;;22.70;99.90;;;;;;5073915;28;20119;-69
2022/10/01 08:55:47;;;;;;;6.45;3.10;;;22.60;99.90;;;;;;5065431;28;20484;-68
2022/10/01 08:58:21;;;;;;;10.30;3.90;;;22.60;99.90;;;;;;5054590;28;20127;-68
2022/10/01 09:00:51;;;;;;;8.18;2.80;;;22.60;99.90;;;;;;5055940;28;20048;-68
2022/10/01 09:03:20;;;;;;;7.63;3.58;;;22.50;99.90;;;;;;5071185;28;20032;-68
2022/10/01 09:06:05;;;;;;;6.57;3.10;;;22.40;99.90;;;;;;5079649;28;20056;-67
2022/10/01 09:08:45;;;;;;;8.90;3.08;;;22.30;99.90;;;;;;5078687;28;20044;-68
2022/10/01 09:11:27;;;;;;;11.48;3.25;;;22.40;99.90;;;;;;5073825;28;20094;-67
2022/10/01 09:14:17;;;;;;;7.53;3.85;;;22.50;99.90;;;;;;5075528;28;20041;-69
2022/10/01 09:16:51;;;;;;;9.75;3.65;;;22.80;99.90;;;;;;5084329;28;20047;-68
2022/10/01 09:19:32;;;;;;;9.93;3.97;;;23.00;99.90;;;;;;5068736;28;20446;-68
2022/10/01 09:22:02;;;;;;;10.65;3.22;;;23.30;99.90;;;;;;5053404;28;20124;-67
2022/10/01 09:24:39;;;;;;;10.27;3.45;;;23.40;99.90;;;;;;5070211;28;20032;-68
2022/10/01 09:27:13;;;;;;;6.35;3.65;;;23.40;99.90;;;;;;5073087;28;20118;-67
2022/10/01 09:29:45;;;;;;;6.13;3.08;;;23.50;99.90;;;;;;5073834;28;20047;-68
2022/10/01 09:32:16;;;;;;;5.35;2.70;;;23.60;99.90;;;;;;5073726;28;20064;-69
2022/10/01 09:34:46;;;;;;;5.97;3.20;;;23.60;99.90;;;;;;5088698;28;20056;-67
2022/10/01 09:37:23;;;;;;;7.15;3.85;;;23.70;99.90;;;;;;5094349;28;20036;-68
2022/10/01 09:40:00;;;;;;;12.60;3.78;;;23.90;99.90;;;;;;5073423;28;20068;-68
2022/10/01 09:42:29;;;;;;;7.93;3.67;;;24.10;99.90;;;;;;5073415;28;20067;-69
2022/10/01 09:44:57;;;;;;;7.00;3.55;;;24.10;99.90;;;;;;5054545;28;20495;-68
2022/10/01 09:47:25;;;;;;;8.10;3.83;;;24.20;99.90;;;;;;5072358;28;20657;-70
2022/10/01 09:49:54;;;;;;;9.80;4.20;;;24.10;99.90;;;;;;5073022;28;20036;-68
2022/10/01 09:52:27;;;;;;;8.18;4.15;;;24.20;99.90;;;;;;5073341;28;20097;-67
2022/10/01 09:54:59;;;;;;;7.30;4.00;;;24.20;99.90;;;;;;5073076;28;20384;-67
2022/10/01 09:57:32;;;;;;;10.43;3.83;;;24.40;99.90;;;;;;5073578;28;20041;-67
2022/10/01 10:00:07;;;;;;;7.80;3.97;;;24.40;99.90;;;;;;5073052;28;20040;-67
2022/10/01 10:02:41;;;;;;;10.45;3.90;;;24.50;99.90;;;;;;5073133;28;20479;-68
2022/10/01 10:05:14;;;;;;;10.60;3.65;;;24.50;99.90;;;;;;5073182;28;20056;-69
2022/10/01 10:07:45;;;;;;;6.10;2.85;;;24.40;99.90;;;;;;5073538;28;20048;-69
2022/10/01 10:10:19;;;;;;;6.75;3.65;;;24.50;99.90;;;;;;5073093;28;20067;-70
2022/10/01 10:12:48;;;;;;;12.02;3.67;;;24.60;99.90;;;;;;5072806;28;20468;-70
2022/10/01 10:15:18;;;;;;;16.13;5.32;;;24.60;99.90;;;;;;5076149;28;20067;-77
2022/10/01 10:17:48;;;;;;;11.35;5.68;;;24.60;99.90;;;;;;5077046;28;20076;-71
2022/10/01 10:20:24;;;;;;;12.07;4.63;;;24.70;99.90;;;;;;5075536;28;20051;-72
2022/10/01 10:22:52;;;;;;;8.40;3.53;;;24.90;99.90;;;;;;5073428;28;20110;-71
2022/10/01 10:25:23;;;;;;;6.70;2.90;;;24.90;99.90;;;;;;5064249;28;20396;-71
2022/10/01 10:27:55;;;;;;;7.60;3.85;;;25.00;99.90;;;;;;5073168;28;20488;-70
2022/10/01 10:30:25;;;;;;;6.85;3.47;;;25.10;99.90;;;;;;5072745;28;20504;-70
2022/10/01 10:32:54;;;;;;;9.13;4.38;;;25.00;99.90;;;;;;5072768;28;20063;-72
2022/10/01 10:35:25;;;;;;;14.60;5.90;;;24.90;99.90;;;;;;5072889;28;20037;-71
2022/10/01 10:37:54;;;;;;;10.48;5.60;;;24.90;99.90;;;;;;5072935;28;20045;-71
2022/10/01 10:40:24;;;;;;;11.85;5.18;;;24.90;99.90;;;;;;5072628;28;20041;-71
2022/10/01 10:42:53;;;;;;;10.82;5.55;;;24.90;99.90;;;;;;5072714;28;20036;-72
2022/10/01 10:45:28;;;;;;;10.73;5.32;;;24.90;99.90;;;;;;5072311;28;20068;-71
2022/10/01 10:47:57;;;;;;;10.57;5.55;;;24.90;99.90;;;;;;5072953;28;20048;-71
2022/10/01 10:50:31;;;;;;;10.43;4.78;;;25.20;99.90;;;;;;5072505;28;20120;-71
2022/10/01 10:52:58;;;;;;;9.88;4.60;;;25.50;99.90;;;;;;5072977;28;20040;-71
2022/10/01 10:55:30;;;;;;;11.82;5.00;;;25.60;99.90;;;;;;5074446;28;20127;-71
2022/10/01 10:58:09;;;;;;;8.48;3.92;;;25.60;99.90;;;;;;5059373;28;20502;-70
2022/10/01 11:00:44;;;;;;;9.45;4.72;;;25.60;99.90;;;;;;5075105;28;20606;-71
2022/10/01 11:03:15;;;;;;;13.63;8.38;;;25.50;99.90;;;;;;5076625;28;20056;-71
2022/10/01 11:05:44;;;;;;;10.18;5.25;;;25.40;99.90;;;;;;5076163;28;20045;-71
2022/10/01 11:08:18;;;;;;;11.57;4.47;;;25.60;99.90;;;;;;5076854;28;20098;-71
2022/10/01 11:10:55;;;;;;;14.25;6.82;;;25.90;99.90;;;;;;5076449;28;20581;-71
2022/10/01 11:13:39;;;;;;;11.43;4.75;;;26.00;99.90;;;;;;5076279;28;20064;-71
2022/10/01 11:16:41;;;;;;;7.53;4.10;;;26.20;99.90;;;;;;5076507;28;20071;-71
2022/10/01 11:19:23;;;;;;;14.05;5.40;;;26.20;99.90;;;;;;5076474;28;20041;-70
2022/10/01 11:22:06;;;;;;;8.52;3.63;;;26.10;99.90;;;;;;5076705;28;20068;-70
2022/10/01 11:25:05;;;;;;;8.02;3.70;;;26.00;99.90;;;;;;5074553;28;20060;-72
2022/10/01 11:27:42;;;;;;;9.25;3.80;;;25.90;99.90;;;;;;5054109;28;20065;-71
2022/10/01 11:30:15;;;;;;;10.20;4.80;;;26.10;99.90;;;;;;5063662;28;20044;-71
2022/10/01 11:32:47;;;;;;;12.65;4.20;;;26.20;99.90;;;;;;5075158;28;20135;-70
2022/10/01 11:35:44;;;;;;;14.20;7.82;;;26.40;99.90;;;;;;5076256;28;20068;-70
2022/10/01 11:38:42;;;;;;;9.55;4.10;;;26.80;99.90;;;;;;5076485;28;20123;-71
2022/10/01 11:41:21;;;;;;;11.45;3.90;;;27.00;99.90;;;;;;5076459;28;20067;-71
2022/10/01 11:43:53;;;;;;;9.95;3.70;;;27.00;99.90;;;;;;5076321;28;20055;-71
2022/10/01 11:46:41;;;;;;;5.53;4.00;;;27.20;99.90;;;;;;5073207;28;20548;-71
2022/10/01 11:49:42;;;;;;;8.23;4.20;;;27.40;99.90;;;;;;5072865;28;20145;-72
2022/10/01 11:52:16;;;;;;;7.75;5.15;;;27.70;99.90;;;;;;5063805;28;20127;-71
2022/10/01 11:54:56;;;;;;;9.07;3.92;;;27.80;99.40;;;;;;5074544;28;20067;-70
2022/10/01 12:00:11;;;;;;;7.90;3.03;;;27.80;95.10;;;;;;5066580;28;20392;-72
2022/10/01 12:02:50;;;;;;;10.05;4.13;;;27.80;96.00;;;;;;5074770;28;20052;-71
2022/10/01 12:05:20;;;;;;;7.45;3.80;;;28.20;96.20;;;;;;5065497;28;20080;-73
2022/10/01 12:07:53;;;;;;;7.43;4.00;;;28.40;95.50;;;;;;5076110;28;20044;-72
2022/10/01 12:10:36;;;;;;;10.15;4.65;;;28.50;94.60;;;;;;5075067;28;20082;-71
2022/10/01 12:13:13;;;;;;;9.05;2.80;;;28.70;93.50;;;;;;5074666;28;20040;-72
2022/10/01 12:15:48;;;;;;;9.02;2.70;;;28.60;92.10;;;;;;5060673;28;20492;-71
2022/10/01 12:18:22;;;;;;;5.45;2.90;;;28.70;90.90;;;;;;5074456;28;20039;-71
2022/10/01 12:20:52;;;;;;;8.53;3.43;;;28.60;89.50;;;;;;5075618;28;20078;-71
2022/10/01 12:23:22;;;;;;;14.25;4.57;;;28.40;90.00;;;;;;5073801;28;20068;-71
2022/10/01 12:26:03;;;;;;;6.60;2.85;;;28.10;89.40;;;;;;5070761;28;20156;-71
2022/10/01 12:28:39;;;;;;;11.18;7.25;;;27.80;87.90;;;;;;5071758;28;20090;-72
2022/10/01 12:31:08;;;;;;;;;;;27.50;88.80;;;;;;5070662;28;20037;-72
2022/10/01 12:33:51;;;;;;;5.22;2.53;;;27.30;89.30;;;;;;5074863;28;19920;-71
2022/10/01 12:36:24;;;;;;;9.45;4.57;;;27.10;89.40;;;;;;5074935;28;20068;-72
2022/10/01 12:39:03;;;;;;;16.15;5.03;;;26.80;91.80;;;;;;5075073;28;20128;-71
2022/10/01 12:41:41;;;;;;;15.85;6.22;;;26.60;95.50;;;;;;5074526;28;20120;-70
2022/10/01 12:44:45;;;;;;;13.52;5.28;;;26.00;99.80;;;;;;5075125;28;20514;-71
2022/10/01 12:47:36;;;;;;;12.15;6.32;;;25.40;99.90;;;;;;5065906;28;20432;-73
2022/10/01 12:50:28;;;;;;;13.13;4.60;;;24.50;99.90;;;;;;5074498;28;20092;-72
2022/10/01 12:53:13;;;;;;;14.30;4.65;;;23.80;43.50;;;;;;5072107;28;20057;-72
2022/10/01 12:55:54;;;;;;;7.88;4.93;;;23.10;1.00;;;;;;5063657;28;20063;-73
2022/10/01 12:58:53;;;;;;;11.98;6.28;;;22.80;98.80;;;;;;5073419;28;20048;-72
2022/10/01 13:01:33;;;;;;;10.02;6.10;;;22.70;99.90;;;;;;5050837;28;20087;-73
2022/10/01 13:04:24;;;;;;;13.98;5.57;;;22.40;99.90;;;;;;5073700;28;20488;-72
2022/10/01 13:07:13;;;;;;;15.50;6.50;;;22.30;99.90;;;;;;5074251;28;20047;-71
2022/10/01 13:09:50;;;;;;;12.18;5.70;;;22.00;99.90;;;;;;5077121;28;20060;-73